Terminal Aerodrome Forecast
Issued by NWS

Current Version | Previous Version | Graphics & Text | Print | Product List | Glossary On
Versions: 1 2 3 4 5 6 7 8 9 10 11 12 13 14 15 16 17 18 19 20 21 22 23 24 25
000
FTUS41 KRLX 190500
TAFCKB
TAF
KCKB 190530Z 1906/2006 32007KT 5SM -RA BKN009 BKN015 OVC050
     FM190900 30006KT 4SM BR OVC012
     FM191200 29006KT 5SM BR SCT015
     FM192200 25005KT P6SM SCT200=

USA.gov is the U.S. government's official web portal to all federal, state and local government web resources and services.